sensor_id;sensor_type;location;lat;lon;timestamp;P1;durP1;ratioP1;P2;durP2;ratioP2
1613;SDS011;800;48.824;9.346;2022-09-21T00:01:06;5.37;;;4.63;;
1613;SDS011;800;48.824;9.346;2022-09-21T00:03:34;5.60;;;4.87;;
1613;SDS011;800;48.824;9.346;2022-09-21T00:06:01;5.57;;;4.80;;
1613;SDS011;800;48.824;9.346;2022-09-21T00:08:27;5.10;;;4.60;;
1613;SDS011;800;48.824;9.346;2022-09-21T00:10:53;5.90;;;4.80;;
1613;SDS011;800;48.824;9.346;2022-09-21T00:13:19;8.40;;;4.70;;
1613;SDS011;800;48.824;9.346;2022-09-21T00:15:44;5.60;;;4.73;;
1613;SDS011;800;48.824;9.346;2022-09-21T00:18:10;5.80;;;4.63;;
1613;SDS011;800;48.824;9.346;2022-09-21T00:20:39;5.60;;;4.93;;
1613;SDS011;800;48.824;9.346;2022-09-21T00:23:07;5.10;;;4.70;;
1613;SDS011;800;48.824;9.346;2022-09-21T00:25:33;5.63;;;5.03;;
1613;SDS011;800;48.824;9.346;2022-09-21T00:27:59;5.77;;;5.17;;
1613;SDS011;800;48.824;9.346;2022-09-21T00:30:25;10.30;;;4.53;;
1613;SDS011;800;48.824;9.346;2022-09-21T00:32:51;5.43;;;4.57;;
1613;SDS011;800;48.824;9.346;2022-09-21T00:35:17;6.93;;;4.43;;
1613;SDS011;800;48.824;9.346;2022-09-21T00:37:43;6.77;;;4.80;;
1613;SDS011;800;48.824;9.346;2022-09-21T00:40:08;6.83;;;5.17;;
1613;SDS011;800;48.824;9.346;2022-09-21T00:42:34;5.20;;;4.53;;
1613;SDS011;800;48.824;9.346;2022-09-21T00:45:01;4.60;;;4.23;;
1613;SDS011;800;48.824;9.346;2022-09-21T00:47:32;4.63;;;3.83;;
1613;SDS011;800;48.824;9.346;2022-09-21T00:50:05;6.50;;;5.00;;
1613;SDS011;800;48.824;9.346;2022-09-21T00:52:38;6.70;;;4.20;;
1613;SDS011;800;48.824;9.346;2022-09-21T00:57:41;5.00;;;4.23;;
1613;SDS011;800;48.824;9.346;2022-09-21T01:00:10;5.07;;;4.00;;
1613;SDS011;800;48.824;9.346;2022-09-21T01:02:36;8.57;;;4.80;;
1613;SDS011;800;48.824;9.346;2022-09-21T01:05:03;5.60;;;4.90;;
1613;SDS011;800;48.824;9.346;2022-09-21T01:07:30;7.67;;;5.00;;
1613;SDS011;800;48.824;9.346;2022-09-21T01:09:59;4.90;;;4.40;;
1613;SDS011;800;48.824;9.346;2022-09-21T01:12:46;5.97;;;4.93;;
1613;SDS011;800;48.824;9.346;2022-09-21T01:21:20;5.07;;;4.37;;
1613;SDS011;800;48.824;9.346;2022-09-21T01:27:01;4.43;;;3.70;;
1613;SDS011;800;48.824;9.346;2022-09-21T01:32:19;6.30;;;4.60;;
1613;SDS011;800;48.824;9.346;2022-09-21T01:35:05;5.57;;;4.43;;
1613;SDS011;800;48.824;9.346;2022-09-21T01:37:36;10.37;;;4.50;;
1613;SDS011;800;48.824;9.346;2022-09-21T01:40:07;6.57;;;4.90;;
1613;SDS011;800;48.824;9.346;2022-09-21T01:42:38;6.77;;;4.70;;
1613;SDS011;800;48.824;9.346;2022-09-21T01:45:05;4.90;;;3.87;;
1613;SDS011;800;48.824;9.346;2022-09-21T01:47:34;5.03;;;3.90;;
1613;SDS011;800;48.824;9.346;2022-09-21T01:50:04;4.87;;;4.40;;
1613;SDS011;800;48.824;9.346;2022-09-21T01:52:39;5.40;;;4.47;;
1613;SDS011;800;48.824;9.346;2022-09-21T01:55:23;5.13;;;3.90;;
1613;SDS011;800;48.824;9.346;2022-09-21T02:00:36;6.10;;;4.73;;
1613;SDS011;800;48.824;9.346;2022-09-21T02:03:04;6.80;;;5.00;;
1613;SDS011;800;48.824;9.346;2022-09-21T02:05:45;7.80;;;4.80;;
1613;SDS011;800;48.824;9.346;2022-09-21T02:08:11;6.23;;;4.97;;
1613;SDS011;800;48.824;9.346;2022-09-21T02:10:58;7.83;;;4.57;;
1613;SDS011;800;48.824;9.346;2022-09-21T02:13:25;6.90;;;4.40;;
1613;SDS011;800;48.824;9.346;2022-09-21T02:23:50;4.90;;;4.23;;
1613;SDS011;800;48.824;9.346;2022-09-21T02:26:33;6.80;;;4.60;;
1613;SDS011;800;48.824;9.346;2022-09-21T02:29:20;6.50;;;4.40;;
1613;SDS011;800;48.824;9.346;2022-09-21T02:32:11;4.20;;;3.80;;
1613;SDS011;800;48.824;9.346;2022-09-21T02:34:47;5.23;;;3.80;;
1613;SDS011;800;48.824;9.346;2022-09-21T02:43:00;4.03;;;3.63;;
1613;SDS011;800;48.824;9.346;2022-09-21T02:45:33;4.47;;;4.00;;
1613;SDS011;800;48.824;9.346;2022-09-21T02:48:10;5.53;;;5.03;;
1613;SDS011;800;48.824;9.346;2022-09-21T02:50:42;5.40;;;4.50;;
1613;SDS011;800;48.824;9.346;2022-09-21T02:53:15;12.10;;;4.03;;
1613;SDS011;800;48.824;9.346;2022-09-21T02:55:44;4.83;;;4.33;;
1613;SDS011;800;48.824;9.346;2022-09-21T02:58:11;5.50;;;4.20;;
1613;SDS011;800;48.824;9.346;2022-09-21T03:00:38;6.17;;;4.47;;
1613;SDS011;800;48.824;9.346;2022-09-21T03:03:14;5.80;;;4.70;;
1613;SDS011;800;48.824;9.346;2022-09-21T03:05:45;5.90;;;4.00;;
1613;SDS011;800;48.824;9.346;2022-09-21T03:08:14;6.13;;;4.07;;
1613;SDS011;800;48.824;9.346;2022-09-21T03:10:40;5.90;;;3.90;;
1613;SDS011;800;48.824;9.346;2022-09-21T03:13:06;4.93;;;4.23;;
1613;SDS011;800;48.824;9.346;2022-09-21T03:15:35;4.70;;;4.30;;
1613;SDS011;800;48.824;9.346;2022-09-21T03:18:02;5.20;;;4.30;;
1613;SDS011;800;48.824;9.346;2022-09-21T03:20:33;5.03;;;4.23;;
1613;SDS011;800;48.824;9.346;2022-09-21T03:22:59;8.40;;;4.33;;
1613;SDS011;800;48.824;9.346;2022-09-21T03:25:25;5.47;;;4.20;;
1613;SDS011;800;48.824;9.346;2022-09-21T03:27:52;5.60;;;4.40;;
1613;SDS011;800;48.824;9.346;2022-09-21T03:30:18;6.80;;;4.73;;
1613;SDS011;800;48.824;9.346;2022-09-21T03:32:48;8.07;;;4.60;;
1613;SDS011;800;48.824;9.346;2022-09-21T03:35:14;31.33;;;5.67;;
1613;SDS011;800;48.824;9.346;2022-09-21T03:37:40;9.00;;;5.10;;
1613;SDS011;800;48.824;9.346;2022-09-21T03:40:06;9.73;;;4.60;;
1613;SDS011;800;48.824;9.346;2022-09-21T03:42:32;10.03;;;5.00;;
1613;SDS011;800;48.824;9.346;2022-09-21T03:44:58;7.00;;;4.33;;
1613;SDS011;800;48.824;9.346;2022-09-21T03:47:23;5.93;;;5.33;;
1613;SDS011;800;48.824;9.346;2022-09-21T03:49:49;12.33;;;5.93;;
1613;SDS011;800;48.824;9.346;2022-09-21T03:52:15;10.27;;;5.10;;
1613;SDS011;800;48.824;9.346;2022-09-21T03:54:40;9.27;;;5.00;;
1613;SDS011;800;48.824;9.346;2022-09-21T03:57:06;6.20;;;4.67;;
1613;SDS011;800;48.824;9.346;2022-09-21T03:59:32;11.20;;;4.60;;
1613;SDS011;800;48.824;9.346;2022-09-21T04:01:59;5.90;;;5.33;;
1613;SDS011;800;48.824;9.346;2022-09-21T04:04:25;5.80;;;5.30;;
1613;SDS011;800;48.824;9.346;2022-09-21T04:06:51;16.93;;;5.60;;
1613;SDS011;800;48.824;9.346;2022-09-21T04:09:16;11.90;;;5.50;;
1613;SDS011;800;48.824;9.346;2022-09-21T04:11:43;17.90;;;5.00;;
1613;SDS011;800;48.824;9.346;2022-09-21T04:14:10;26.57;;;5.87;;
1613;SDS011;800;48.824;9.346;2022-09-21T04:16:36;6.37;;;4.23;;
1613;SDS011;800;48.824;9.346;2022-09-21T04:19:02;5.63;;;4.57;;
1613;SDS011;800;48.824;9.346;2022-09-21T04:21:28;7.50;;;4.73;;
1613;SDS011;800;48.824;9.346;2022-09-21T04:23:54;5.40;;;4.77;;
1613;SDS011;800;48.824;9.346;2022-09-21T04:26:24;16.33;;;5.80;;
1613;SDS011;800;48.824;9.346;2022-09-21T04:28:52;30.20;;;5.83;;
1613;SDS011;800;48.824;9.346;2022-09-21T04:31:19;27.33;;;6.27;;
1613;SDS011;800;48.824;9.346;2022-09-21T04:33:49;9.70;;;5.77;;
1613;SDS011;800;48.824;9.346;2022-09-21T04:36:18;6.30;;;5.43;;
1613;SDS011;800;48.824;9.346;2022-09-21T04:38:44;7.67;;;5.47;;
1613;SDS011;800;48.824;9.346;2022-09-21T04:41:10;185.77;;;14.30;;
1613;SDS011;800;48.824;9.346;2022-09-21T04:43:36;10.90;;;5.30;;
1613;SDS011;800;48.824;9.346;2022-09-21T04:46:10;60.83;;;7.43;;
1613;SDS011;800;48.824;9.346;2022-09-21T04:48:37;22.53;;;5.90;;
1613;SDS011;800;48.824;9.346;2022-09-21T04:51:03;11.50;;;5.83;;
1613;SDS011;800;48.824;9.346;2022-09-21T04:53:36;56.43;;;7.33;;
1613;SDS011;800;48.824;9.346;2022-09-21T04:56:04;8.20;;;5.33;;
1613;SDS011;800;48.824;9.346;2022-09-21T04:58:30;29.23;;;6.37;;
1613;SDS011;800;48.824;9.346;2022-09-21T05:00:56;18.87;;;5.90;;
1613;SDS011;800;48.824;9.346;2022-09-21T05:03:23;51.23;;;7.53;;
1613;SDS011;800;48.824;9.346;2022-09-21T05:05:51;28.90;;;6.07;;
1613;SDS011;800;48.824;9.346;2022-09-21T05:08:17;68.83;;;7.37;;
1613;SDS011;800;48.824;9.346;2022-09-21T05:11:02;12.03;;;5.10;;
1613;SDS011;800;48.824;9.346;2022-09-21T05:13:28;13.23;;;4.83;;
1613;SDS011;800;48.824;9.346;2022-09-21T05:15:53;12.10;;;5.47;;
1613;SDS011;800;48.824;9.346;2022-09-21T05:18:19;13.50;;;6.13;;
1613;SDS011;800;48.824;9.346;2022-09-21T05:20:44;6.60;;;4.90;;
1613;SDS011;800;48.824;9.346;2022-09-21T05:23:17;7.63;;;5.40;;
1613;SDS011;800;48.824;9.346;2022-09-21T05:25:42;20.53;;;5.63;;
1613;SDS011;800;48.824;9.346;2022-09-21T05:28:08;13.97;;;6.10;;
1613;SDS011;800;48.824;9.346;2022-09-21T05:30:34;55.93;;;6.20;;
1613;SDS011;800;48.824;9.346;2022-09-21T05:33:00;12.60;;;5.80;;
1613;SDS011;800;48.824;9.346;2022-09-21T05:35:35;6.60;;;3.87;;
1613;SDS011;800;48.824;9.346;2022-09-21T05:38:07;41.53;;;6.00;;
1613;SDS011;800;48.824;9.346;2022-09-21T05:40:39;6.53;;;4.30;;
1613;SDS011;800;48.824;9.346;2022-09-21T05:43:05;6.87;;;4.23;;
1613;SDS011;800;48.824;9.346;2022-09-21T05:45:33;23.00;;;5.10;;
1613;SDS011;800;48.824;9.346;2022-09-21T05:48:06;9.50;;;4.93;;
1613;SDS011;800;48.824;9.346;2022-09-21T05:53:21;11.07;;;4.97;;
1613;SDS011;800;48.824;9.346;2022-09-21T05:58:30;12.97;;;4.33;;
1613;SDS011;800;48.824;9.346;2022-09-21T06:03:49;13.50;;;5.10;;
1613;SDS011;800;48.824;9.346;2022-09-21T06:06:16;19.57;;;5.10;;
1613;SDS011;800;48.824;9.346;2022-09-21T06:08:43;9.67;;;4.80;;
1613;SDS011;800;48.824;9.346;2022-09-21T06:11:09;11.27;;;4.70;;
1613;SDS011;800;48.824;9.346;2022-09-21T06:13:35;7.30;;;5.10;;
1613;SDS011;800;48.824;9.346;2022-09-21T06:16:01;5.93;;;4.80;;
1613;SDS011;800;48.824;9.346;2022-09-21T06:18:27;8.50;;;5.07;;
1613;SDS011;800;48.824;9.346;2022-09-21T06:20:53;10.47;;;5.40;;
1613;SDS011;800;48.824;9.346;2022-09-21T06:23:19;26.13;;;5.50;;
1613;SDS011;800;48.824;9.346;2022-09-21T06:25:49;5.80;;;4.70;;
1613;SDS011;800;48.824;9.346;2022-09-21T06:28:16;10.23;;;5.07;;
1613;SDS011;800;48.824;9.346;2022-09-21T06:30:41;5.70;;;4.53;;
1613;SDS011;800;48.824;9.346;2022-09-21T06:33:08;18.50;;;5.00;;
1613;SDS011;800;48.824;9.346;2022-09-21T06:35:35;5.50;;;4.93;;
1613;SDS011;800;48.824;9.346;2022-09-21T06:38:02;8.10;;;5.40;;
1613;SDS011;800;48.824;9.346;2022-09-21T06:40:29;5.17;;;4.53;;
1613;SDS011;800;48.824;9.346;2022-09-21T06:42:59;7.10;;;5.40;;
1613;SDS011;800;48.824;9.346;2022-09-21T06:45:26;6.60;;;5.20;;
1613;SDS011;800;48.824;9.346;2022-09-21T06:47:52;5.93;;;5.33;;
1613;SDS011;800;48.824;9.346;2022-09-21T06:50:18;6.37;;;5.30;;
1613;SDS011;800;48.824;9.346;2022-09-21T06:52:44;6.27;;;5.67;;
1613;SDS011;800;48.824;9.346;2022-09-21T06:55:10;9.07;;;5.33;;
1613;SDS011;800;48.824;9.346;2022-09-21T06:57:37;6.60;;;5.17;;
1613;SDS011;800;48.824;9.346;2022-09-21T07:00:06;6.10;;;5.50;;
1613;SDS011;800;48.824;9.346;2022-09-21T07:02:34;7.90;;;5.20;;
1613;SDS011;800;48.824;9.346;2022-09-21T07:05:00;8.30;;;4.93;;
1613;SDS011;800;48.824;9.346;2022-09-21T07:07:26;7.77;;;5.13;;
1613;SDS011;800;48.824;9.346;2022-09-21T07:09:56;6.03;;;5.17;;
1613;SDS011;800;48.824;9.346;2022-09-21T07:12:26;5.77;;;4.27;;
1613;SDS011;800;48.824;9.346;2022-09-21T07:14:59;5.47;;;4.97;;
1613;SDS011;800;48.824;9.346;2022-09-21T07:17:29;5.33;;;4.83;;
1613;SDS011;800;48.824;9.346;2022-09-21T07:19:59;5.97;;;5.33;;
1613;SDS011;800;48.824;9.346;2022-09-21T07:22:27;5.70;;;5.20;;
1613;SDS011;800;48.824;9.346;2022-09-21T07:24:53;5.70;;;5.10;;
1613;SDS011;800;48.824;9.346;2022-09-21T07:27:19;6.10;;;5.50;;
1613;SDS011;800;48.824;9.346;2022-09-21T07:29:44;6.70;;;5.40;;
1613;SDS011;800;48.824;9.346;2022-09-21T07:32:11;8.40;;;5.13;;
1613;SDS011;800;48.824;9.346;2022-09-21T07:34:37;6.00;;;5.17;;
1613;SDS011;800;48.824;9.346;2022-09-21T07:37:03;8.10;;;5.90;;
1613;SDS011;800;48.824;9.346;2022-09-21T07:39:29;11.13;;;5.77;;
1613;SDS011;800;48.824;9.346;2022-09-21T07:41:54;7.53;;;5.60;;
1613;SDS011;800;48.824;9.346;2022-09-21T07:44:22;5.63;;;5.23;;
1613;SDS011;800;48.824;9.346;2022-09-21T07:46:48;5.60;;;4.67;;
1613;SDS011;800;48.824;9.346;2022-09-21T07:49:14;5.73;;;4.80;;
1613;SDS011;800;48.824;9.346;2022-09-21T07:51:39;5.90;;;5.40;;
1613;SDS011;800;48.824;9.346;2022-09-21T07:54:05;5.67;;;5.13;;
1613;SDS011;800;48.824;9.346;2022-09-21T07:56:30;6.57;;;5.97;;
1613;SDS011;800;48.824;9.346;2022-09-21T07:58:56;5.90;;;5.30;;
1613;SDS011;800;48.824;9.346;2022-09-21T08:01:31;5.53;;;5.03;;
1613;SDS011;800;48.824;9.346;2022-09-21T08:03:58;5.60;;;5.10;;
1613;SDS011;800;48.824;9.346;2022-09-21T08:06:25;5.60;;;4.60;;
1613;SDS011;800;48.824;9.346;2022-09-21T08:08:53;5.50;;;4.93;;
1613;SDS011;800;48.824;9.346;2022-09-21T08:11:19;5.30;;;4.80;;
1613;SDS011;800;48.824;9.346;2022-09-21T08:13:46;5.07;;;4.57;;
1613;SDS011;800;48.824;9.346;2022-09-21T08:16:18;5.03;;;4.40;;
1613;SDS011;800;48.824;9.346;2022-09-21T08:18:44;6.00;;;5.07;;
1613;SDS011;800;48.824;9.346;2022-09-21T08:21:10;5.23;;;4.73;;
1613;SDS011;800;48.824;9.346;2022-09-21T08:23:35;5.27;;;4.87;;
1613;SDS011;800;48.824;9.346;2022-09-21T08:26:04;6.03;;;4.60;;
1613;SDS011;800;48.824;9.346;2022-09-21T08:28:31;5.10;;;4.60;;
1613;SDS011;800;48.824;9.346;2022-09-21T08:30:58;4.17;;;3.87;;
1613;SDS011;800;48.824;9.346;2022-09-21T08:33:24;5.27;;;4.57;;
1613;SDS011;800;48.824;9.346;2022-09-21T08:35:55;4.83;;;4.20;;
1613;SDS011;800;48.824;9.346;2022-09-21T08:38:22;4.80;;;4.40;;
1613;SDS011;800;48.824;9.346;2022-09-21T08:40:48;6.70;;;4.10;;
1613;SDS011;800;48.824;9.346;2022-09-21T08:43:17;4.70;;;4.20;;
1613;SDS011;800;48.824;9.346;2022-09-21T08:45:53;3.37;;;3.07;;
1613;SDS011;800;48.824;9.346;2022-09-21T08:48:22;4.00;;;3.20;;
1613;SDS011;800;48.824;9.346;2022-09-21T08:50:51;4.90;;;3.37;;
1613;SDS011;800;48.824;9.346;2022-09-21T08:53:30;4.17;;;3.30;;
1613;SDS011;800;48.824;9.346;2022-09-21T08:56:10;3.87;;;3.30;;
1613;SDS011;800;48.824;9.346;2022-09-21T08:58:37;4.53;;;2.43;;
1613;SDS011;800;48.824;9.346;2022-09-21T09:06:13;1.77;;;1.47;;
1613;SDS011;800;48.824;9.346;2022-09-21T09:12:08;4.77;;;1.80;;
1613;SDS011;800;48.824;9.346;2022-09-21T09:19:58;2.63;;;1.30;;
1613;SDS011;800;48.824;9.346;2022-09-21T09:22:33;3.80;;;1.30;;
1613;SDS011;800;48.824;9.346;2022-09-21T09:25:05;1.57;;;1.10;;
1613;SDS011;800;48.824;9.346;2022-09-21T09:27:40;2.13;;;1.27;;
1613;SDS011;800;48.824;9.346;2022-09-21T09:32:48;1.30;;;1.20;;
1613;SDS011;800;48.824;9.346;2022-09-21T09:35:30;1.40;;;1.30;;
1613;SDS011;800;48.824;9.346;2022-09-21T09:38:04;1.33;;;0.80;;
1613;SDS011;800;48.824;9.346;2022-09-21T09:44:13;2.23;;;1.00;;
1613;SDS011;800;48.824;9.346;2022-09-21T09:46:21;2.60;;;1.27;;
1613;SDS011;800;48.824;9.346;2022-09-21T09:51:31;2.23;;;1.30;;
1613;SDS011;800;48.824;9.346;2022-09-21T09:54:01;1.73;;;1.20;;
1613;SDS011;800;48.824;9.346;2022-09-21T09:56:28;1.37;;;1.20;;
1613;SDS011;800;48.824;9.346;2022-09-21T09:58:56;2.57;;;1.30;;
1613;SDS011;800;48.824;9.346;2022-09-21T10:01:43;3.93;;;1.20;;
1613;SDS011;800;48.824;9.346;2022-09-21T10:04:11;1.43;;;1.20;;
1613;SDS011;800;48.824;9.346;2022-09-21T10:06:38;3.23;;;1.40;;
1613;SDS011;800;48.824;9.346;2022-09-21T10:11:44;2.87;;;1.30;;
1613;SDS011;800;48.824;9.346;2022-09-21T10:14:13;1.47;;;1.00;;
1613;SDS011;800;48.824;9.346;2022-09-21T10:16:43;1.97;;;0.90;;
1613;SDS011;800;48.824;9.346;2022-09-21T10:19:16;2.20;;;1.20;;
1613;SDS011;800;48.824;9.346;2022-09-21T10:21:45;1.50;;;1.40;;
1613;SDS011;800;48.824;9.346;2022-09-21T10:24:30;1.63;;;1.20;;
1613;SDS011;800;48.824;9.346;2022-09-21T10:27:02;1.97;;;1.10;;
1613;SDS011;800;48.824;9.346;2022-09-21T10:29:46;2.87;;;1.53;;
1613;SDS011;800;48.824;9.346;2022-09-21T10:34:40;0.97;;;0.80;;
1613;SDS011;800;48.824;9.346;2022-09-21T10:39:53;1.57;;;0.90;;
1613;SDS011;800;48.824;9.346;2022-09-21T10:42:19;1.27;;;0.90;;
1613;SDS011;800;48.824;9.346;2022-09-21T10:44:46;1.10;;;1.00;;
1613;SDS011;800;48.824;9.346;2022-09-21T10:47:32;0.80;;;0.80;;
1613;SDS011;800;48.824;9.346;2022-09-21T10:50:02;1.17;;;1.07;;
1613;SDS011;800;48.824;9.346;2022-09-21T10:52:35;1.10;;;1.00;;
1613;SDS011;800;48.824;9.346;2022-09-21T10:55:14;1.17;;;0.90;;
1613;SDS011;800;48.824;9.346;2022-09-21T10:57:45;1.50;;;0.97;;
1613;SDS011;800;48.824;9.346;2022-09-21T11:02:50;0.90;;;0.90;;
1613;SDS011;800;48.824;9.346;2022-09-21T11:08:09;1.20;;;1.10;;
1613;SDS011;800;48.824;9.346;2022-09-21T11:13:16;2.20;;;0.97;;
1613;SDS011;800;48.824;9.346;2022-09-21T11:18:45;1.47;;;1.37;;
1613;SDS011;800;48.824;9.346;2022-09-21T11:26:47;0.93;;;0.80;;
1613;SDS011;800;48.824;9.346;2022-09-21T11:32:28;1.43;;;0.83;;
1613;SDS011;800;48.824;9.346;2022-09-21T11:38:07;1.90;;;0.90;;
1613;SDS011;800;48.824;9.346;2022-09-21T11:41:04;1.93;;;1.10;;
1613;SDS011;800;48.824;9.346;2022-09-21T11:47:05;1.00;;;0.90;;
1613;SDS011;800;48.824;9.346;2022-09-21T11:52:29;0.90;;;0.80;;
1613;SDS011;800;48.824;9.346;2022-09-21T11:55:49;0.80;;;0.70;;
1613;SDS011;800;48.824;9.346;2022-09-21T11:58:03;1.40;;;1.03;;
1613;SDS011;800;48.824;9.346;2022-09-21T12:00:53;2.37;;;1.47;;
1613;SDS011;800;48.824;9.346;2022-09-21T12:03:43;1.40;;;1.03;;
1613;SDS011;800;48.824;9.346;2022-09-21T12:06:20;1.43;;;0.80;;
1613;SDS011;800;48.824;9.346;2022-09-21T12:11:57;2.77;;;1.17;;
1613;SDS011;800;48.824;9.346;2022-09-21T12:22:48;2.20;;;1.27;;
1613;SDS011;800;48.824;9.346;2022-09-21T12:25:25;1.13;;;0.90;;
1613;SDS011;800;48.824;9.346;2022-09-21T12:31:20;1.20;;;0.80;;
1613;SDS011;800;48.824;9.346;2022-09-21T12:33:51;2.93;;;1.60;;
1613;SDS011;800;48.824;9.346;2022-09-21T12:36:44;4.20;;;3.73;;
1613;SDS011;800;48.824;9.346;2022-09-21T12:39:28;1.23;;;1.03;;
1613;SDS011;800;48.824;9.346;2022-09-21T12:45:51;1.83;;;1.63;;
1613;SDS011;800;48.824;9.346;2022-09-21T12:48:23;2.43;;;2.20;;
1613;SDS011;800;48.824;9.346;2022-09-21T12:51:44;2.30;;;1.93;;
1613;SDS011;800;48.824;9.346;2022-09-21T12:53:51;1.77;;;1.67;;
1613;SDS011;800;48.824;9.346;2022-09-21T12:56:23;1.83;;;1.13;;
1613;SDS011;800;48.824;9.346;2022-09-21T13:02:21;1.40;;;1.00;;
1613;SDS011;800;48.824;9.346;2022-09-21T13:07:59;1.63;;;1.10;;
1613;SDS011;800;48.824;9.346;2022-09-21T13:10:35;1.20;;;1.10;;
1613;SDS011;800;48.824;9.346;2022-09-21T13:16:04;1.00;;;0.90;;
1613;SDS011;800;48.824;9.346;2022-09-21T13:18:32;1.40;;;0.80;;
1613;SDS011;800;48.824;9.346;2022-09-21T13:21:22;2.60;;;1.07;;
1613;SDS011;800;48.824;9.346;2022-09-21T13:23:57;1.37;;;0.70;;
1613;SDS011;800;48.824;9.346;2022-09-21T13:26:32;1.87;;;1.33;;
1613;SDS011;800;48.824;9.346;2022-09-21T13:29:04;1.33;;;1.10;;
1613;SDS011;800;48.824;9.346;2022-09-21T13:37:31;1.40;;;0.80;;
1613;SDS011;800;48.824;9.346;2022-09-21T13:47:39;1.57;;;1.10;;
1613;SDS011;800;48.824;9.346;2022-09-21T13:50:20;1.10;;;1.00;;
1613;SDS011;800;48.824;9.346;2022-09-21T13:52:50;1.03;;;0.87;;
1613;SDS011;800;48.824;9.346;2022-09-21T13:57:57;0.87;;;0.87;;
1613;SDS011;800;48.824;9.346;2022-09-21T14:00:36;1.90;;;1.40;;
1613;SDS011;800;48.824;9.346;2022-09-21T14:03:20;1.00;;;0.83;;
1613;SDS011;800;48.824;9.346;2022-09-21T14:05:51;1.53;;;1.10;;
1613;SDS011;800;48.824;9.346;2022-09-21T14:08:24;0.90;;;0.83;;
1613;SDS011;800;48.824;9.346;2022-09-21T14:11:38;0.80;;;0.80;;
1613;SDS011;800;48.824;9.346;2022-09-21T14:29:56;1.10;;;1.00;;
1613;SDS011;800;48.824;9.346;2022-09-21T14:32:33;0.80;;;0.80;;
1613;SDS011;800;48.824;9.346;2022-09-21T14:35:10;1.43;;;1.00;;
1613;SDS011;800;48.824;9.346;2022-09-21T14:37:46;4.30;;;0.87;;
1613;SDS011;800;48.824;9.346;2022-09-21T14:40:38;1.13;;;1.03;;
1613;SDS011;800;48.824;9.346;2022-09-21T14:43:12;1.33;;;0.83;;
1613;SDS011;800;48.824;9.346;2022-09-21T14:57:03;2.83;;;0.80;;
1613;SDS011;800;48.824;9.346;2022-09-21T15:04:53;1.43;;;1.00;;
1613;SDS011;800;48.824;9.346;2022-09-21T15:07:31;1.10;;;0.90;;
1613;SDS011;800;48.824;9.346;2022-09-21T15:10:43;0.97;;;0.83;;
1613;SDS011;800;48.824;9.346;2022-09-21T15:21:51;0.70;;;0.70;;
1613;SDS011;800;48.824;9.346;2022-09-21T15:24:46;1.20;;;1.10;;
1613;SDS011;800;48.824;9.346;2022-09-21T15:27:14;2.40;;;0.77;;
1613;SDS011;800;48.824;9.346;2022-09-21T15:29:43;0.80;;;0.80;;
1613;SDS011;800;48.824;9.346;2022-09-21T15:35:03;1.03;;;0.80;;
1613;SDS011;800;48.824;9.346;2022-09-21T15:37:39;1.63;;;0.70;;
1613;SDS011;800;48.824;9.346;2022-09-21T15:40:05;1.00;;;0.70;;
1613;SDS011;800;48.824;9.346;2022-09-21T15:42:47;0.80;;;0.80;;
1613;SDS011;800;48.824;9.346;2022-09-21T15:45:25;1.00;;;0.90;;
1613;SDS011;800;48.824;9.346;2022-09-21T15:47:58;1.27;;;1.00;;
1613;SDS011;800;48.824;9.346;2022-09-21T15:50:24;1.10;;;1.00;;
1613;SDS011;800;48.824;9.346;2022-09-21T15:52:54;1.20;;;1.10;;
1613;SDS011;800;48.824;9.346;2022-09-21T15:55:23;1.13;;;1.03;;
1613;SDS011;800;48.824;9.346;2022-09-21T15:57:52;1.00;;;1.00;;
1613;SDS011;800;48.824;9.346;2022-09-21T16:00:23;1.73;;;1.00;;
1613;SDS011;800;48.824;9.346;2022-09-21T16:05:20;1.03;;;0.93;;
1613;SDS011;800;48.824;9.346;2022-09-21T16:07:47;1.30;;;1.20;;
1613;SDS011;800;48.824;9.346;2022-09-21T16:16:11;1.20;;;0.90;;
1613;SDS011;800;48.824;9.346;2022-09-21T16:21:15;1.40;;;1.30;;
1613;SDS011;800;48.824;9.346;2022-09-21T16:23:43;1.00;;;1.00;;
1613;SDS011;800;48.824;9.346;2022-09-21T16:26:16;1.87;;;1.13;;
1613;SDS011;800;48.824;9.346;2022-09-21T16:28:43;1.93;;;0.93;;
1613;SDS011;800;48.824;9.346;2022-09-21T16:33:56;1.67;;;0.80;;
1613;SDS011;800;48.824;9.346;2022-09-21T16:38:50;1.13;;;1.00;;
1613;SDS011;800;48.824;9.346;2022-09-21T16:41:19;2.13;;;1.20;;
1613;SDS011;800;48.824;9.346;2022-09-21T16:43:46;1.30;;;1.20;;
1613;SDS011;800;48.824;9.346;2022-09-21T16:46:14;1.17;;;1.07;;
1613;SDS011;800;48.824;9.346;2022-09-21T16:48:40;1.77;;;1.10;;
1613;SDS011;800;48.824;9.346;2022-09-21T16:51:09;1.20;;;1.10;;
1613;SDS011;800;48.824;9.346;2022-09-21T16:53:37;1.00;;;0.87;;
1613;SDS011;800;48.824;9.346;2022-09-21T16:56:03;1.47;;;1.37;;
1613;SDS011;800;48.824;9.346;2022-09-21T16:58:29;2.83;;;1.17;;
1613;SDS011;800;48.824;9.346;2022-09-21T17:00:55;1.27;;;1.17;;
1613;SDS011;800;48.824;9.346;2022-09-21T17:03:21;2.10;;;1.33;;
1613;SDS011;800;48.824;9.346;2022-09-21T17:05:47;1.50;;;1.40;;
1613;SDS011;800;48.824;9.346;2022-09-21T17:08:13;1.20;;;1.10;;
1613;SDS011;800;48.824;9.346;2022-09-21T17:10:41;3.07;;;0.93;;
1613;SDS011;800;48.824;9.346;2022-09-21T17:13:08;1.47;;;1.23;;
1613;SDS011;800;48.824;9.346;2022-09-21T17:15:34;1.30;;;1.10;;
1613;SDS011;800;48.824;9.346;2022-09-21T17:18:04;3.40;;;1.37;;
1613;SDS011;800;48.824;9.346;2022-09-21T17:20:34;0.90;;;0.90;;
1613;SDS011;800;48.824;9.346;2022-09-21T17:23:02;0.80;;;0.80;;
1613;SDS011;800;48.824;9.346;2022-09-21T17:25:28;3.90;;;1.10;;
1613;SDS011;800;48.824;9.346;2022-09-21T17:27:55;2.30;;;1.20;;
1613;SDS011;800;48.824;9.346;2022-09-21T17:30:24;2.20;;;1.10;;
1613;SDS011;800;48.824;9.346;2022-09-21T17:32:51;1.30;;;1.20;;
1613;SDS011;800;48.824;9.346;2022-09-21T17:35:39;0.80;;;0.80;;
1613;SDS011;800;48.824;9.346;2022-09-21T17:38:05;2.10;;;1.40;;
1613;SDS011;800;48.824;9.346;2022-09-21T17:40:32;1.60;;;1.50;;
1613;SDS011;800;48.824;9.346;2022-09-21T17:46:10;1.27;;;1.17;;
1613;SDS011;800;48.824;9.346;2022-09-21T17:48:46;1.63;;;1.30;;
1613;SDS011;800;48.824;9.346;2022-09-21T17:51:12;1.80;;;1.17;;
1613;SDS011;800;48.824;9.346;2022-09-21T17:53:57;1.20;;;1.10;;
1613;SDS011;800;48.824;9.346;2022-09-21T17:59:04;1.70;;;1.60;;
1613;SDS011;800;48.824;9.346;2022-09-21T18:01:31;2.50;;;2.23;;
1613;SDS011;800;48.824;9.346;2022-09-21T18:04:03;2.00;;;1.80;;
1613;SDS011;800;48.824;9.346;2022-09-21T18:06:30;2.03;;;1.93;;
1613;SDS011;800;48.824;9.346;2022-09-21T18:08:56;2.07;;;1.87;;
1613;SDS011;800;48.824;9.346;2022-09-21T18:11:39;2.10;;;1.90;;
1613;SDS011;800;48.824;9.346;2022-09-21T18:22:57;8.60;;;5.43;;
1613;SDS011;800;48.824;9.346;2022-09-21T18:25:39;13.77;;;9.07;;
1613;SDS011;800;48.824;9.346;2022-09-21T18:28:16;6.43;;;5.83;;
1613;SDS011;800;48.824;9.346;2022-09-21T18:33:53;6.80;;;5.00;;
1613;SDS011;800;48.824;9.346;2022-09-21T18:42:22;5.70;;;5.20;;
1613;SDS011;800;48.824;9.346;2022-09-21T18:50:16;6.10;;;5.33;;
1613;SDS011;800;48.824;9.346;2022-09-21T18:53:14;6.10;;;4.63;;
1613;SDS011;800;48.824;9.346;2022-09-21T18:55:45;4.97;;;4.30;;
1613;SDS011;800;48.824;9.346;2022-09-21T18:58:11;6.00;;;4.93;;
1613;SDS011;800;48.824;9.346;2022-09-21T19:00:38;5.40;;;4.90;;
1613;SDS011;800;48.824;9.346;2022-09-21T19:03:04;5.93;;;5.43;;
1613;SDS011;800;48.824;9.346;2022-09-21T19:05:32;6.67;;;4.73;;
1613;SDS011;800;48.824;9.346;2022-09-21T19:08:06;10.23;;;6.50;;
1613;SDS011;800;48.824;9.346;2022-09-21T19:10:48;6.10;;;5.60;;
1613;SDS011;800;48.824;9.346;2022-09-21T19:16:19;7.00;;;5.83;;
1613;SDS011;800;48.824;9.346;2022-09-21T19:21:59;7.20;;;5.40;;
1613;SDS011;800;48.824;9.346;2022-09-21T19:30:03;9.27;;;6.70;;
1613;SDS011;800;48.824;9.346;2022-09-21T19:35:11;5.00;;;4.60;;
1613;SDS011;800;48.824;9.346;2022-09-21T19:37:47;5.83;;;4.87;;
1613;SDS011;800;48.824;9.346;2022-09-21T19:40:15;4.90;;;4.33;;
1613;SDS011;800;48.824;9.346;2022-09-21T19:45:52;4.73;;;3.00;;
1613;SDS011;800;48.824;9.346;2022-09-21T19:48:45;4.17;;;2.60;;
1613;SDS011;800;48.824;9.346;2022-09-21T19:51:29;3.43;;;3.00;;
1613;SDS011;800;48.824;9.346;2022-09-21T19:53:55;5.50;;;3.63;;
1613;SDS011;800;48.824;9.346;2022-09-21T19:56:45;3.43;;;3.13;;
1613;SDS011;800;48.824;9.346;2022-09-21T19:59:32;4.13;;;3.73;;